Time;durP1;ratioP1;P1;durP2;ratioP2;P2;SDS_P1;SDS_P2;PMS_P1;PMS_P2;Temp;Humidity;BMP_temperature;BMP_pressure;BME280_temperature;BME280_humidity;BME280_pressure;Samples;Min_cycle;Max_cycle;Signal;HPM_P1;HPM_P2
2021/07/02 00:01:52;;;;;;;2.58;1.00;;;;;;;30.92;21.80;100559.22;144992;625;6002;-79
2021/07/02 00:04:19;;;;;;;5.82;1.30;;;;;;;30.91;22.54;100565.53;144992;577;6002;-78
2021/07/02 00:06:45;;;;;;;4.28;1.20;;;;;;;30.72;19.84;100555.03;144992;636;6002;-78
2021/07/02 00:09:11;;;;;;;6.15;1.48;;;;;;;30.70;22.59;100559.56;144992;569;6002;-80
2021/07/02 00:11:38;;;;;;;5.37;1.10;;;;;;;30.66;19.94;100550.00;144992;589;6002;-78
2021/07/02 00:14:04;;;;;;;4.47;1.20;;;;;;;30.73;23.40;100541.53;144992;657;6002;-79
2021/07/02 00:16:33;;;;;;;7.97;1.00;;;;;;;30.84;23.53;100553.44;144992;674;6002;-80
2021/07/02 00:19:00;;;;;;;2.47;0.98;;;;;;;30.83;22.64;100557.94;144992;594;6002;-79
2021/07/02 00:21:26;;;;;;;4.72;1.00;;;;;;;30.81;20.01;100559.81;144992;627;6002;-79
2021/07/02 00:23:53;;;;;;;3.25;1.05;;;;;;;30.75;21.12;100562.84;144992;567;6002;-79
2021/07/02 00:26:19;;;;;;;3.65;1.40;;;;;;;30.83;23.10;100562.41;144992;615;6002;-79
2021/07/02 00:28:46;;;;;;;6.07;1.35;;;;;;;30.82;23.73;100558.87;144992;571;6002;-80
2021/07/02 00:31:12;;;;;;;4.22;1.10;;;;;;;30.83;20.74;100555.25;144992;593;6002;-81
2021/07/02 00:33:39;;;;;;;4.18;1.00;;;;;;;30.80;20.08;100552.75;144993;586;6002;-80
2021/07/02 00:36:05;;;;;;;5.10;1.48;;;;;;;30.82;23.11;100552.66;144993;587;6002;-80
2021/07/02 00:38:32;;;;;;;6.25;1.33;;;;;;;30.78;21.01;100545.75;144993;579;6002;-79
2021/07/02 00:40:58;;;;;;;2.67;1.15;;;;;;;30.60;19.48;100537.81;144993;599;6002;-79
2021/07/02 00:43:25;;;;;;;2.80;1.10;;;;;;;30.54;20.06;100535.47;144993;565;6002;-79
2021/07/02 00:45:51;;;;;;;5.12;1.20;;;;;;;30.37;19.66;100550.66;144993;594;6002;-79
2021/07/02 00:48:18;;;;;;;2.17;1.00;;;;;;;30.45;22.46;100552.06;144993;565;6002;-78
2021/07/02 00:50:46;;;;;;;4.20;1.10;;;;;;;30.43;20.31;100543.25;144993;624;6002;-78
2021/07/02 00:53:13;;;;;;;1.73;1.10;;;;;;;30.39;22.72;100546.09;144993;595;6002;-78
2021/07/02 00:55:41;;;;;;;3.35;1.37;;;;;;;30.41;22.69;100547.84;144993;596;6002;-78
2021/07/02 00:58:08;;;;;;;2.70;1.00;;;;;;;30.38;22.32;100546.19;144993;611;6003;-80
2021/07/02 01:00:34;;;;;;;3.92;1.08;;;;;;;30.40;23.21;100555.03;144993;570;6002;-78
2021/07/02 01:03:00;;;;;;;2.78;1.10;;;;;;;30.26;18.75;100558.44;144993;579;6002;-81
2021/07/02 01:05:27;;;;;;;5.87;1.20;;;;;;;30.26;20.40;100561.09;144992;588;6002;-80
2021/07/02 01:07:54;;;;;;;2.70;1.00;;;;;;;30.27;22.65;100552.09;144992;602;6002;-81
2021/07/02 01:10:21;;;;;;;3.65;1.30;;;;;;;30.22;22.24;100559.53;144991;573;6002;-80
2021/07/02 01:12:47;;;;;;;2.60;1.40;;;;;;;30.19;19.88;100552.56;144992;609;6002;-80
2021/07/02 01:15:27;;;;;;;3.20;1.60;;;;;;;30.14;19.07;100545.72;144992;622;6002;-80
2021/07/02 01:17:54;;;;;;;5.28;1.30;;;;;;;30.10;21.65;100544.12;144992;571;6002;-80
2021/07/02 01:20:21;;;;;;;5.90;1.30;;;;;;;30.15;21.36;100548.31;144993;626;6002;-79
2021/07/02 01:22:47;;;;;;;3.30;1.30;;;;;;;30.16;21.50;100546.47;144993;576;6002;-79
2021/07/02 01:25:14;;;;;;;3.80;1.10;;;;;;;30.18;20.30;100544.59;144993;570;6002;-78
2021/07/02 01:27:41;;;;;;;2.60;1.27;;;;;;;30.21;19.75;100544.44;144992;682;6002;-78
2021/07/02 01:30:09;;;;;;;4.65;1.52;;;;;;;30.21;20.72;100552.47;144993;596;6002;-78
2021/07/02 01:32:36;;;;;;;2.17;1.20;;;;;;;30.20;18.73;100548.06;144993;563;6002;-80
2021/07/02 01:35:03;;;;;;;6.65;1.20;;;;;;;30.16;18.87;100541.13;144993;590;6002;-79
2021/07/02 01:37:29;;;;;;;2.92;1.10;;;;;;;30.21;21.80;100547.12;144993;582;6002;-79
2021/07/02 01:39:55;;;;;;;2.50;1.35;;;;;;;30.29;20.43;100544.88;144993;578;6002;-80
2021/07/02 01:42:22;;;;;;;4.22;1.10;;;;;;;30.30;21.21;100543.06;144993;598;6002;-79
2021/07/02 01:44:48;;;;;;;3.80;1.37;;;;;;;30.27;21.01;100549.44;144993;589;6002;-79
2021/07/02 01:47:15;;;;;;;2.12;1.25;;;;;;;30.28;21.54;100547.62;144993;585;6002;-79
2021/07/02 01:49:41;;;;;;;1.98;1.00;;;;;;;30.30;20.21;100541.22;144993;582;6002;-80
2021/07/02 01:52:08;;;;;;;2.97;1.12;;;;;;;30.34;21.74;100544.63;144993;565;6002;-80
2021/07/02 01:54:34;;;;;;;3.22;1.30;;;;;;;30.43;20.68;100546.78;144993;580;6002;-79
2021/07/02 01:57:06;;;;;;;2.42;1.20;;;;;;;30.45;22.21;100542.25;144993;563;6002;-78
2021/07/02 01:59:32;;;;;;;5.07;1.15;;;;;;;30.48;21.94;100535.81;144993;565;6002;-80
2021/07/02 02:01:59;;;;;;;3.53;1.25;;;;;;;30.44;21.99;100536.97;144993;588;6002;-79
2021/07/02 02:04:25;;;;;;;4.70;1.30;;;;;;;30.47;22.17;100534.97;144993;642;6002;-79
2021/07/02 02:06:52;;;;;;;2.55;1.50;;;;;;;30.48;22.53;100538.50;144993;583;6002;-79
2021/07/02 02:09:18;;;;;;;4.20;1.17;;;;;;;30.36;22.13;100534.69;144993;597;6002;-80
2021/07/02 02:11:45;;;;;;;2.62;1.27;;;;;;;30.32;21.81;100539.34;144993;620;6002;-80
2021/07/02 02:14:11;;;;;;;2.92;1.23;;;;;;;30.24;20.40;100528.19;144994;579;5002;-80
2021/07/02 02:16:41;;;;;;;3.70;1.23;;;;;;;30.18;21.85;100533.91;144994;639;5002;-79
2021/07/02 02:19:16;;;;;;;3.80;1.40;;;;;;;30.25;22.43;100531.75;144994;564;5002;-79
2021/07/02 02:21:44;;;;;;;2.67;1.10;;;;;;;30.23;22.42;100534.50;144994;565;5002;-80
2021/07/02 02:24:10;;;;;;;6.15;1.30;;;;;;;30.26;21.97;100536.13;144994;626;5002;-79
2021/07/02 02:26:37;;;;;;;2.75;1.05;;;;;;;30.23;19.88;100534.50;144994;608;5002;-80
2021/07/02 02:29:03;;;;;;;4.45;1.20;;;;;;;30.20;21.41;100534.66;144994;592;5002;-80
2021/07/02 02:31:30;;;;;;;4.75;1.40;;;;;;;30.10;19.99;100534.31;144994;619;5002;-81
2021/07/02 02:33:56;;;;;;;3.40;1.27;;;;;;;30.06;22.48;100531.91;144994;569;5002;-80
2021/07/02 02:36:23;;;;;;;2.33;1.23;;;;;;;30.00;22.43;100531.28;144993;578;5002;-79
2021/07/02 02:38:49;;;;;;;2.20;1.37;;;;;;;29.92;21.35;100532.63;144994;589;5002;-80
2021/07/02 02:41:16;;;;;;;3.53;1.30;;;;;;;29.83;19.61;100528.66;144994;630;5002;-80
2021/07/02 02:43:42;;;;;;;4.97;1.20;;;;;;;29.81;22.28;100534.09;144994;567;5002;-80
2021/07/02 02:46:09;;;;;;;2.35;1.20;;;;;;;29.83;22.52;100534.88;144994;614;5002;-79
2021/07/02 02:48:36;;;;;;;3.15;1.35;;;;;;;29.83;22.43;100536.69;144994;575;5002;-80
2021/07/02 02:51:02;;;;;;;4.20;1.20;;;;;;;29.74;21.36;100531.78;144994;598;5002;-80
2021/07/02 02:53:29;;;;;;;5.75;1.45;;;;;;;29.74;22.26;100547.84;144994;566;5002;-80
2021/07/02 02:55:55;;;;;;;3.90;1.40;;;;;;;29.70;21.91;100543.59;144994;607;5002;-80
2021/07/02 02:58:22;;;;;;;4.40;1.33;;;;;;;29.60;20.75;100551.25;144994;604;5002;-78
2021/07/02 03:00:49;;;;;;;3.00;1.30;;;;;;;29.46;20.51;100557.28;144994;596;5002;-81
2021/07/02 03:03:15;;;;;;;4.85;1.40;;;;;;;29.40;22.29;100558.50;144994;578;5002;-79
2021/07/02 03:05:41;;;;;;;5.25;1.67;;;;;;;29.43;22.50;100563.69;144994;639;5002;-78
2021/07/02 03:08:08;;;;;;;4.07;1.40;;;;;;;29.43;20.70;100563.69;144994;579;5002;-78
2021/07/02 03:10:34;;;;;;;4.43;1.50;;;;;;;29.48;22.48;100571.47;144994;604;5002;-77
2021/07/02 03:13:01;;;;;;;3.33;1.40;;;;;;;29.43;22.49;100576.16;144994;640;5003;-80
2021/07/02 03:15:29;;;;;;;7.30;1.42;;;;;;;29.44;21.31;100584.12;144994;564;5002;-78
2021/07/02 03:17:55;;;;;;;4.85;1.70;;;;;;;29.32;20.80;100579.41;144994;668;5002;-78
2021/07/02 03:20:22;;;;;;;4.10;1.30;;;;;;;29.34;22.41;100582.00;144994;566;5003;-79
2021/07/02 03:22:48;;;;;;;5.05;1.55;;;;;;;29.43;22.52;100576.16;144994;646;5002;-80
2021/07/02 03:25:15;;;;;;;3.70;1.40;;;;;;;29.55;22.63;100580.03;144994;580;5002;-80
2021/07/02 03:27:42;;;;;;;4.97;1.35;;;;;;;29.62;22.59;100574.28;144994;686;5002;-80
2021/07/02 03:30:11;;;;;;;5.32;1.50;;;;;;;29.72;22.61;100580.03;144994;590;5002;-80
2021/07/02 03:32:38;;;;;;;2.65;1.40;;;;;;;29.73;22.44;100578.19;144994;722;5002;-80
2021/07/02 03:35:06;;;;;;;3.72;1.60;;;;;;;29.66;22.27;100580.34;144994;693;5002;-79
2021/07/02 03:37:32;;;;;;;5.22;1.55;;;;;;;29.62;21.91;100576.97;144994;721;5002;-79
2021/07/02 03:39:59;;;;;;;5.37;1.80;;;;;;;29.60;21.68;100583.31;144994;587;5002;-80
2021/07/02 03:42:25;;;;;;;6.87;1.70;;;;;;;29.60;22.90;100580.66;144994;564;5002;-80
2021/07/02 03:44:52;;;;;;;6.03;1.60;;;;;;;29.59;22.90;100582.47;144994;576;5002;-79
2021/07/02 03:47:18;;;;;;;4.25;1.62;;;;;;;29.61;23.00;100582.41;144994;578;5002;-78
2021/07/02 03:49:45;;;;;;;5.60;2.25;;;;;;;29.63;22.96;100585.84;144994;576;5002;-78
2021/07/02 03:52:11;;;;;;;4.55;1.40;;;;;;;29.68;22.79;100581.12;144994;684;5002;-79
2021/07/02 03:54:38;;;;;;;4.37;1.33;;;;;;;29.73;22.94;100586.22;144994;626;5002;-80
2021/07/02 03:57:13;;;;;;;4.90;1.55;;;;;;;29.77;23.19;100577.09;144994;655;5002;-78
2021/07/02 03:59:44;;;;;;;5.53;1.80;;;;;;;29.79;22.89;100583.25;144994;681;5002;-81
2021/07/02 04:02:12;;;;;;;5.40;1.50;;;;;;;29.72;23.23;100576.50;144994;566;5002;-79
2021/07/02 04:04:39;;;;;;;4.05;1.40;;;;;;;29.72;22.48;100576.50;144994;591;5002;-77
2021/07/02 04:07:07;;;;;;;4.15;1.40;;;;;;;29.74;22.95;100582.63;144994;564;5002;-79
2021/07/02 04:09:34;;;;;;;4.53;1.52;;;;;;;29.69;23.26;100576.66;144994;571;5002;-78
2021/07/02 04:12:01;;;;;;;6.95;1.30;;;;;;;29.65;23.21;100582.16;144994;610;5002;-79
2021/07/02 04:14:29;;;;;;;4.15;1.80;;;;;;;29.54;22.53;100576.50;144994;682;5002;-80
2021/07/02 04:16:56;;;;;;;5.40;1.48;;;;;;;29.42;22.31;100578.00;144994;640;5002;-81
2021/07/02 04:19:23;;;;;;;6.43;1.30;;;;;;;29.49;23.33;100583.88;144994;737;5002;-80
2021/07/02 04:21:50;;;;;;;10.23;2.20;;;;;;;29.53;23.60;100588.12;144994;564;5002;-80
2021/07/02 04:24:17;;;;;;;9.02;1.70;;;;;;;29.47;22.42;100580.44;144994;563;5002;-81
2021/07/02 04:26:45;;;;;;;6.03;1.25;;;;;;;29.49;23.32;100578.53;144994;668;5002;-80
2021/07/02 04:29:12;;;;;;;7.15;1.50;;;;;;;29.54;23.14;100581.84;144994;663;5002;-80
2021/07/02 04:31:38;;;;;;;3.87;1.50;;;;;;;29.52;22.88;100585.53;144994;584;5002;-80
2021/07/02 04:34:05;;;;;;;7.72;1.42;;;;;;;29.52;22.87;100578.38;144994;571;5002;-82
2021/07/02 04:36:31;;;;;;;3.78;1.45;;;;;;;29.47;23.06;100583.97;144994;582;5002;-81
2021/07/02 04:38:58;;;;;;;6.40;1.10;;;;;;;29.52;23.72;100589.06;144994;682;5002;-80
2021/07/02 04:41:24;;;;;;;2.28;1.30;;;;;;;29.48;22.78;100584.84;144994;704;5002;-80
2021/07/02 04:43:51;;;;;;;2.78;1.15;;;;;;;29.51;23.35;100581.12;144994;577;5002;-81
2021/07/02 04:46:18;;;;;;;7.12;1.20;;;;;;;29.47;22.76;100575.06;144994;601;5002;-80
2021/07/02 04:48:45;;;;;;;2.72;1.20;;;;;;;29.39;22.75;100575.47;144994;684;5002;-80
2021/07/02 04:51:18;;;;;;;4.70;1.30;;;;;;;29.32;23.31;100571.41;144994;591;5002;-81
2021/07/02 04:53:45;;;;;;;;;;;;;;;29.52;23.46;100586.41;144998;911;5002;-80
2021/07/02 04:56:13;;;;;;;5.18;1.25;;;;;;;29.60;23.38;100584.19;144998;585;5002;-80
2021/07/02 04:58:41;;;;;;;3.97;1.40;;;;;;;29.66;22.97;100578.53;144994;679;5002;-80
2021/07/02 05:01:07;;;;;;;5.47;1.58;;;;;;;29.72;22.97;100573.81;144994;583;5002;-80
2021/07/02 05:03:34;;;;;;;2.72;1.10;;;;;;;29.82;23.30;100581.28;144994;564;5002;-79
2021/07/02 05:06:05;;;;;;;7.28;2.22;;;;;;;29.89;22.54;100576.50;144993;596;5002;-80
2021/07/02 05:08:32;;;;;;;10.52;5.03;;;;;;;29.93;22.62;100579.87;144994;574;5002;-80
2021/07/02 05:10:58;;;;;;;6.93;2.47;;;;;;;29.98;22.76;100585.81;144994;589;5002;-80
2021/07/02 05:13:25;;;;;;;5.78;1.75;;;;;;;29.96;22.05;100588.59;144994;573;5002;-80
2021/07/02 05:15:52;;;;;;;5.10;1.55;;;;;;;30.03;23.20;100603.37;144994;574;5002;-79
2021/07/02 05:18:20;;;;;;;6.05;1.45;;;;;;;29.98;23.13;100593.84;144994;591;5002;-80
2021/07/02 05:20:46;;;;;;;2.50;1.20;;;;;;;29.95;22.18;100600.22;144994;593;5002;-80
2021/07/02 05:23:13;;;;;;;6.37;1.40;;;;;;;30.08;22.72;100595.06;144994;608;5002;-80
2021/07/02 05:25:39;;;;;;;5.30;1.30;;;;;;;30.02;22.16;100607.00;144994;644;5002;-79
2021/07/02 05:28:06;;;;;;;1.73;0.90;;;;;;;30.01;22.29;100599.91;144994;576;5002;-81
2021/07/02 05:30:33;;;;;;;2.37;1.17;;;;;;;30.08;22.84;100603.09;144994;571;5002;-80
2021/07/02 05:32:59;;;;;;;2.05;1.20;;;;;;;30.19;22.65;100605.22;144994;572;5002;-80
2021/07/02 05:35:25;;;;;;;3.30;1.10;;;;;;;30.17;22.01;100601.75;144994;583;5002;-82
2021/07/02 05:37:52;;;;;;;3.80;1.02;;;;;;;30.23;22.44;100611.28;144994;650;5002;-82
2021/07/02 05:40:19;;;;;;;3.20;1.20;;;;;;;30.33;23.22;100610.66;144994;621;5002;-82
2021/07/02 05:42:46;;;;;;;4.40;1.20;;;;;;;30.43;22.61;100613.75;144994;567;5002;-81
2021/07/02 05:45:14;;;;;;;4.53;1.30;;;;;;;30.37;22.37;100612.25;144994;585;5002;-83
2021/07/02 05:47:50;;;;;;;4.62;1.52;;;;;;;30.44;21.92;100617.31;144994;636;5002;-81
2021/07/02 05:50:20;;;;;;;2.35;0.98;;;;;;;30.47;21.92;100620.66;144994;567;5002;-81
2021/07/02 05:52:47;;;;;;;3.28;1.20;;;;;;;30.58;22.74;100622.75;144994;566;5002;-80
2021/07/02 05:55:13;;;;;;;4.87;1.20;;;;;;;30.72;22.60;100628.22;144994;637;5002;-80
2021/07/02 05:57:41;;;;;;;6.10;1.15;;;;;;;30.74;21.85;100626.28;144994;616;5002;-79
2021/07/02 06:00:09;;;;;;;6.45;1.40;;;;;;;30.83;22.42;100637.44;144994;571;5002;-81
2021/07/02 06:02:35;;;;;;;4.37;1.33;;;;;;;30.80;21.71;100640.28;144994;596;5002;-82
2021/07/02 06:05:02;;;;;;;1.67;0.90;;;;;;;30.86;21.94;100634.59;144994;564;5002;-80
2021/07/02 06:07:29;;;;;;;3.08;1.40;;;;;;;30.96;22.85;100633.16;144994;611;5002;-80
2021/07/02 06:09:55;;;;;;;2.90;1.30;;;;;;;31.03;22.16;100631.84;144994;565;5002;-80
2021/07/02 06:12:21;;;;;;;1.42;1.00;;;;;;;31.02;21.85;100637.28;144994;569;5002;-82
2021/07/02 06:14:48;;;;;;;3.08;0.93;;;;;;;31.10;22.77;100635.91;144994;670;5002;-79
2021/07/02 06:17:14;;;;;;;2.97;1.17;;;;;;;31.16;21.63;100640.03;144994;612;5002;-80
2021/07/02 06:19:41;;;;;;;2.75;1.02;;;;;;;31.07;21.25;100636.09;144994;629;5002;-80
2021/07/02 06:22:07;;;;;;;4.45;1.90;;;;;;;31.08;21.83;100642.31;144994;591;5002;-80
2021/07/02 06:24:34;;;;;;;2.62;1.30;;;;;;;31.13;21.69;100644.72;144994;625;5002;-81
2021/07/02 06:27:00;;;;;;;2.97;1.60;;;;;;;31.24;22.73;100643.16;144994;564;5002;-80
2021/07/02 06:29:27;;;;;;;2.62;1.20;;;;;;;31.32;22.45;100644.53;144994;567;5002;-80
2021/07/02 06:31:53;;;;;;;3.45;1.05;;;;;;;31.35;22.13;100639.84;144994;583;5002;-79
2021/07/02 06:34:20;;;;;;;5.90;1.30;;;;;;;31.35;21.52;100637.16;144994;566;5003;-79
2021/07/02 06:36:46;;;;;;;3.95;1.20;;;;;;;31.45;22.74;100642.81;144994;583;5002;-80
2021/07/02 06:39:12;;;;;;;4.60;1.25;;;;;;;31.49;22.56;100640.84;144994;629;5002;-80
2021/07/02 06:41:39;;;;;;;3.00;1.17;;;;;;;31.62;22.86;100636.50;144993;582;5002;-81
2021/07/02 06:44:06;;;;;;;3.33;1.20;;;;;;;31.63;21.05;100632.88;144994;601;5002;-79
2021/07/02 06:46:33;;;;;;;3.28;1.12;;;;;;;31.69;22.42;100627.16;144994;605;4567;-80
2021/07/02 06:49:01;;;;;;;5.50;0.95;;;;;;;31.75;21.91;100628.56;144994;616;4580;-80
2021/07/02 06:51:27;;;;;;;3.80;1.00;;;;;;;31.64;21.18;100631.91;144994;641;4572;-80
2021/07/02 06:53:54;;;;;;;3.92;1.10;;;;;;;31.65;21.23;100623.75;144992;657;6002;-80
2021/07/02 06:56:20;;;;;;;2.50;1.08;;;;;;;31.61;22.22;100624.03;144992;576;6002;-81
2021/07/02 06:58:49;;;;;;;2.70;0.90;;;;;;;31.73;22.63;100625.97;144992;564;6002;-79
2021/07/02 07:01:16;;;;;;;3.40;1.10;;;;;;;31.76;21.97;100619.59;144992;611;6002;-80
2021/07/02 07:03:42;;;;;;;3.75;1.00;;;;;;;31.75;21.02;100620.53;144992;648;6002;-80
2021/07/02 07:06:09;;;;;;;4.12;1.35;;;;;;;31.85;22.22;100620.81;144992;630;6002;-81
2021/07/02 07:08:35;;;;;;;3.87;1.00;;;;;;;31.92;22.13;100627.56;144992;645;6002;-80
2021/07/02 07:11:02;;;;;;;2.95;1.10;;;;;;;31.95;20.68;100622.00;144992;577;6002;-80
2021/07/02 07:13:28;;;;;;;2.37;0.95;;;;;;;32.03;20.99;100622.38;144992;641;6002;-79
2021/07/02 07:15:54;;;;;;;4.95;1.60;;;;;;;32.06;20.91;100619.53;144992;650;6002;-81
2021/07/02 07:18:21;;;;;;;6.90;1.73;;;;;;;32.09;21.37;100622.03;144992;626;6002;-80
2021/07/02 07:20:59;;;;;;;1.95;0.88;;;;;;;32.13;21.29;100610.13;144992;603;6002;-81
2021/07/02 07:23:29;;;;;;;4.50;1.00;;;;;;;32.10;20.62;100612.16;144992;693;6002;-80
2021/07/02 07:25:55;;;;;;;3.60;0.90;;;;;;;32.18;20.69;100616.09;144992;579;6002;-80
2021/07/02 07:28:21;;;;;;;4.43;1.17;;;;;;;32.14;20.14;100614.56;144992;604;6002;-81
2021/07/02 07:30:48;;;;;;;3.90;1.40;;;;;;;32.15;20.77;100610.03;144992;613;6002;-81
2021/07/02 07:33:16;;;;;;;2.50;0.98;;;;;;;32.21;19.79;100601.59;144992;643;6003;-79
2021/07/02 07:35:44;;;;;;;2.65;1.50;;;;;;;32.27;21.77;100600.38;144992;680;6002;-79
2021/07/02 07:38:11;;;;;;;5.93;2.05;;;;;;;32.28;19.92;100602.06;144992;580;6002;-82
2021/07/02 07:40:38;;;;;;;4.00;1.65;;;;;;;32.37;20.89;100601.50;144992;658;6002;-82
2021/07/02 07:43:04;;;;;;;3.05;1.10;;;;;;;32.36;20.23;100597.97;144992;662;6002;-81
2021/07/02 07:45:31;;;;;;;6.57;2.17;;;;;;;32.32;20.65;100607.16;144992;569;6002;-81
2021/07/02 07:47:57;;;;;;;10.25;2.50;;;;;;;32.31;21.01;100608.12;144992;577;6002;-80
2021/07/02 07:50:26;;;;;;;9.70;1.83;;;;;;;32.46;21.56;100611.66;144992;672;6002;-81
2021/07/02 07:52:59;;;;;;;2.65;1.25;;;;;;;32.52;20.23;100615.78;144992;576;6002;-80
2021/07/02 07:55:27;;;;;;;4.15;1.23;;;;;;;32.59;19.55;100616.25;144992;577;6002;-79
2021/07/02 07:57:54;;;;;;;3.58;1.20;;;;;;;32.58;20.76;100609.13;144992;671;6002;-79
2021/07/02 08:00:21;;;;;;;3.20;1.85;;;;;;;32.64;20.14;100608.78;144992;678;6002;-81
2021/07/02 08:02:48;;;;;;;2.75;1.33;;;;;;;32.78;20.97;100614.13;144992;685;6002;-82
2021/07/02 08:05:15;;;;;;;7.00;1.50;;;;;;;32.84;19.95;100616.41;144992;564;6002;-81
2021/07/02 08:07:43;;;;;;;3.20;0.85;;;;;;;32.86;19.50;100608.25;144992;566;6002;-80
2021/07/02 08:10:11;;;;;;;3.55;1.23;;;;;;;32.85;20.75;100617.25;144991;618;6002;-81
2021/07/02 08:12:38;;;;;;;4.37;1.10;;;;;;;32.82;19.08;100610.28;144992;604;6002;-79
2021/07/02 08:15:06;;;;;;;5.03;1.25;;;;;;;32.96;19.63;100603.13;144992;743;6002;-80
2021/07/02 08:17:33;;;;;;;2.60;1.12;;;;;;;33.05;19.76;100607.91;144992;590;6002;-81
2021/07/02 08:20:00;;;;;;;5.25;1.00;;;;;;;33.09;18.82;100604.91;144992;696;6002;-80
2021/07/02 08:22:28;;;;;;;4.32;0.77;;;;;;;33.26;20.11;100594.84;144992;616;6002;-80
2021/07/02 08:24:54;;;;;;;4.45;0.93;;;;;;;33.43;20.38;100601.78;144992;685;6002;-79
2021/07/02 08:27:23;;;;;;;3.60;1.00;;;;;;;33.53;20.55;100593.94;144992;564;6002;-80
2021/07/02 08:29:50;;;;;;;3.15;1.00;;;;;;;33.65;17.95;100595.78;144992;585;6002;-81
2021/07/02 08:32:17;;;;;;;3.95;1.30;;;;;;;33.69;18.07;100588.38;144992;683;6002;-79
2021/07/02 08:34:44;;;;;;;2.80;0.98;;;;;;;33.74;18.81;100597.00;144991;610;6002;-79
2021/07/02 08:37:11;;;;;;;2.83;1.30;;;;;;;33.80;18.44;100602.81;144992;598;6002;-80
2021/07/02 08:39:37;;;;;;;2.80;0.90;;;;;;;33.85;19.28;100590.88;144992;639;6002;-80
2021/07/02 08:42:05;;;;;;;3.22;0.93;;;;;;;33.95;19.86;100592.81;144992;593;6002;-80
2021/07/02 08:44:35;;;;;;;1.45;0.65;;;;;;;34.04;19.23;100596.69;144992;595;6002;-80
2021/07/02 08:47:01;;;;;;;2.10;0.80;;;;;;;34.07;18.37;100592.91;144992;613;6002;-81
2021/07/02 08:49:31;;;;;;;3.60;1.20;;;;;;;34.16;19.11;100587.72;144992;617;6002;-79
2021/07/02 08:51:58;;;;;;;2.05;0.80;;;;;;;34.24;17.55;100578.28;144992;592;6002;-79
2021/07/02 08:54:24;;;;;;;3.83;1.58;;;;;;;34.33;18.50;100588.38;144992;566;6002;-81
2021/07/02 08:56:57;;;;;;;6.55;1.40;;;;;;;34.36;18.47;100590.00;144992;577;6002;-79
2021/07/02 08:59:25;;;;;;;3.08;1.23;;;;;;;34.32;18.87;100583.97;144992;589;6002;-80
2021/07/02 09:01:52;;;;;;;4.57;1.90;;;;;;;34.27;18.57;100592.38;144992;563;6002;-78
2021/07/02 09:04:26;;;;;;;4.93;1.92;;;;;;;34.41;19.93;100585.13;144991;577;6002;-80
2021/07/02 09:07:19;;;;;;;5.10;2.10;;;;;;;34.51;19.98;100591.56;144992;608;6002;-77
2021/07/02 09:09:56;;;;;;;5.82;1.30;;;;;;;34.60;20.11;100582.81;144992;580;6005;-82
2021/07/02 09:12:31;;;;;;;4.50;1.45;;;;;;;34.75;20.21;100586.22;144992;646;6004;-82
2021/07/02 09:15:13;;;;;;;3.95;1.50;;;;;;;34.77;19.90;100583.44;144992;737;6004;-81
2021/07/02 09:17:57;;;;;;;12.40;8.30;;;;;;;34.69;19.34;100584.81;144992;569;6005;-79
2021/07/02 09:20:29;;;;;;;6.43;4.05;;;;;;;34.65;20.38;100579.78;144992;567;6004;-79
2021/07/02 09:22:59;;;;;;;5.05;2.10;;;;;;;34.66;18.93;100582.34;144992;628;6004;-79
2021/07/02 09:25:31;;;;;;;5.32;2.03;;;;;;;34.66;18.84;100574.25;144992;673;6005;-78
2021/07/02 09:28:09;;;;;;;7.60;1.98;;;;;;;34.68;19.15;100572.31;144992;623;6004;-83
2021/07/02 09:30:41;;;;;;;3.80;1.87;;;;;;;34.72;19.63;100561.31;144992;591;6004;-80
2021/07/02 09:33:11;;;;;;;5.80;2.90;;;;;;;34.74;18.18;100564.75;144992;697;6005;-82
2021/07/02 09:35:50;;;;;;;5.35;2.35;;;;;;;34.80;18.45;100558.94;144992;570;6004;-80
2021/07/02 09:38:19;;;;;;;5.45;1.70;;;;;;;34.84;19.45;100563.09;144992;585;6004;-79
2021/07/02 09:40:48;;;;;;;7.80;2.58;;;;;;;34.80;19.18;100562.47;144992;576;6004;-80
2021/07/02 09:43:19;;;;;;;5.35;4.00;;;;;;;34.86;19.89;100566.56;144992;641;6004;-79
2021/07/02 09:45:56;;;;;;;2.55;1.70;;;;;;;34.92;18.68;100565.22;144992;586;6004;-81
2021/07/02 09:48:26;;;;;;;10.88;7.10;;;;;;;34.99;18.65;100561.09;144992;562;6004;-80
2021/07/02 09:51:05;;;;;;;7.03;3.65;;;;;;;35.14;19.34;100569.84;144992;577;6004;-81
2021/07/02 09:53:35;;;;;;;5.75;2.60;;;;;;;35.06;18.37;100578.53;144992;604;6004;-81
2021/07/02 09:56:07;;;;;;;10.52;3.00;;;;;;;35.03;19.20;100573.38;144992;621;6004;-80
2021/07/02 09:58:41;;;;;;;8.32;3.60;;;;;;;35.13;19.55;100558.22;144992;571;6004;-79
2021/07/02 10:01:09;;;;;;;4.65;2.35;;;;;;;35.18;19.94;100557.88;144992;617;6004;-81
2021/07/02 10:03:40;;;;;;;8.18;5.03;;;;;;;35.25;19.01;100551.03;144992;619;6004;-82
2021/07/02 10:06:14;;;;;;;5.93;2.33;;;;;;;35.13;17.08;100543.88;144992;631;6004;-79
2021/07/02 10:08:41;;;;;;;4.07;1.70;;;;;;;35.08;17.62;100538.84;144992;583;6004;-80
2021/07/02 10:11:11;;;;;;;3.08;1.40;;;;;;;35.08;17.29;100552.31;144992;620;6004;-80
2021/07/02 10:13:42;;;;;;;8.93;6.20;;;;;;;34.92;17.49;100543.66;144992;572;6004;-80
2021/07/02 10:16:11;;;;;;;10.15;6.12;;;;;;;34.89;17.80;100552.84;144992;653;6004;-80
2021/07/02 10:18:44;;;;;;;4.62;2.37;;;;;;;34.82;19.11;100556.97;144992;603;6004;-80
2021/07/02 10:21:13;;;;;;;6.78;2.12;;;;;;;34.79;19.10;100552.69;144992;577;6004;-80
2021/07/02 10:23:54;;;;;;;4.72;1.90;;;;;;;34.63;18.38;100563.72;144992;587;6004;-79
2021/07/02 10:26:22;;;;;;;3.55;1.50;;;;;;;34.56;19.18;100557.06;144992;574;6004;-81
2021/07/02 10:28:49;;;;;;;3.15;1.37;;;;;;;34.41;18.61;100560.88;144992;563;6004;-79
2021/07/02 10:31:17;;;;;;;3.83;1.30;;;;;;;34.49;19.60;100558.47;144992;565;6004;-80
2021/07/02 10:33:48;;;;;;;7.68;5.65;;;;;;;34.46;19.69;100559.56;144992;588;6004;-82
2021/07/02 10:36:17;;;;;;;8.95;5.97;;;;;;;34.54;20.25;100556.31;144992;654;6004;-80
2021/07/02 10:38:49;;;;;;;9.32;3.83;;;;;;;34.66;19.52;100550.00;144992;574;6004;-82
2021/07/02 10:41:25;;;;;;;5.25;4.15;;;;;;;34.75;19.68;100559.28;144992;581;6004;-81
2021/07/02 10:44:11;;;;;;;5.53;2.25;;;;;;;34.82;18.98;100560.53;144992;577;6004;-80
2021/07/02 10:47:03;;;;;;;5.05;2.15;;;;;;;34.85;18.80;100564.84;144992;591;6004;-79
2021/07/02 10:49:38;;;;;;;5.03;2.47;;;;;;;34.86;19.71;100562.03;144992;656;6002;-81
2021/07/02 10:52:21;;;;;;;5.00;1.60;;;;;;;34.80;18.71;100550.84;144992;580;6002;-80
2021/07/02 10:54:52;;;;;;;3.53;1.75;;;;;;;34.80;19.23;100551.69;144992;584;6002;-80
2021/07/02 10:57:21;;;;;;;4.70;2.95;;;;;;;34.84;19.30;100541.53;144992;599;6002;-80
2021/07/02 11:00:06;;;;;;;3.30;1.90;;;;;;;34.86;18.82;100534.22;144992;569;6002;-80
2021/07/02 11:02:33;;;;;;;4.15;2.72;;;;;;;34.96;19.09;100534.38;144992;568;6004;-81
2021/07/02 11:05:01;;;;;;;5.53;2.67;;;;;;;34.99;18.30;100528.75;144992;587;6004;-81
2021/07/02 11:07:49;;;;;;;6.62;2.30;;;;;;;35.12;18.81;100525.97;144992;604;6004;-80
2021/07/02 11:10:15;;;;;;;5.50;1.52;;;;;;;35.22;19.20;100518.87;144992;566;6002;-80
2021/07/02 11:13:01;;;;;;;4.50;1.50;;;;;;;35.30;18.04;100519.19;144992;577;6002;-80
2021/07/02 11:15:28;;;;;;;4.95;2.67;;;;;;;35.33;17.80;100518.94;144992;591;6002;-80
2021/07/02 11:18:12;;;;;;;2.00;1.23;;;;;;;35.37;18.90;100509.62;144992;570;6002;-81
2021/07/02 11:20:40;;;;;;;7.25;4.15;;;;;;;35.35;17.75;100511.59;144992;627;6002;-80
2021/07/02 11:23:15;;;;;;;5.97;3.20;;;;;;;35.36;18.85;100509.75;144992;570;6002;-80
2021/07/02 11:25:52;;;;;;;12.00;5.10;;;;;;;35.43;19.36;100513.69;144992;594;6002;-81
2021/07/02 11:28:39;;;;;;;2.53;2.00;;;;;;;35.47;19.12;100515.16;144992;583;6002;-80
2021/07/02 11:31:07;;;;;;;3.95;1.58;;;;;;;35.56;19.24;100510.88;144992;577;6002;-81
2021/07/02 11:33:35;;;;;;;5.50;2.55;;;;;;;35.38;18.15;100500.56;144992;588;6002;-81
2021/07/02 11:36:12;;;;;;;5.12;3.87;;;;;;;35.33;18.31;100497.34;144992;593;6002;-80
2021/07/02 11:38:53;;;;;;;5.20;2.47;;;;;;;35.29;19.00;100498.59;144992;599;6002;-79
2021/07/02 11:41:28;;;;;;;6.80;4.32;;;;;;;35.28;19.27;100491.44;144992;564;6002;-80